Terminal Aerodrome Forecast
Issued by NWS

Home | Current Version | Previous Version | Text Only | Print | Product List | Glossary On
Versions: 1 2 3 4 5 6 7 8 9 10 11 12 13 14 15 16 17 18 19 20 21 22
000
FTUS45 KGGW 221700
TAFGDV
TAF
KGDV 221737Z 2218/2318 12009KT P6SM SKC
     FM222100 14013KT P6SM SKC
     FM230300 11007KT P6SM FEW100
     FM231200 VRB03KT P6SM FEW200
      AMD NOT SKED=

USA.gov is the U.S. government's official web portal to all federal, state and local government web resources and services.